Time;durP1;ratioP1;P1;durP2;ratioP2;P2;SDS_P1;SDS_P2;PMS_P1;PMS_P2;Temp;Humidity;BMP_temperature;BMP_pressure;BME280_temperature;BME280_humidity;BME280_pressure;Samples;Min_cycle;Max_cycle;Signal;HPM_P1;HPM_P2
2023/06/29 00:00:46;;;;;;;;;;;25.50;37.80;;;;;;1562713;74;1088;-57
2023/06/29 00:02:48;;;;;;;;;;;25.60;37.60;;;;;;1562578;74;614;-59
2023/06/29 00:04:50;;;;;;;;;;;25.50;37.60;;;;;;1577297;75;686;-58
2023/06/29 00:06:53;;;;;;;;;;;25.60;37.60;;;;;;1559177;75;1026;-59
2023/06/29 00:08:56;;;;;;;;;;;25.60;37.60;;;;;;1575495;75;1188;-58
2023/06/29 00:10:58;;;;;;;;;;;25.50;37.60;;;;;;1562238;75;1642;-57
2023/06/29 00:13:00;;;;;;;;;;;25.60;37.50;;;;;;1542977;75;657;-58
2023/06/29 00:15:02;;;;;;;;;;;25.60;37.60;;;;;;1567272;75;752;-57
2023/06/29 00:17:04;;;;;;;;;;;25.60;37.50;;;;;;1573598;75;660;-58
2023/06/29 00:19:07;;;;;;;;;;;25.60;37.40;;;;;;1570875;75;1926;-57
2023/06/29 00:21:09;;;;;;;;;;;25.60;37.50;;;;;;1564840;75;693;-59
2023/06/29 00:23:11;;;;;;;;;;;25.50;37.60;;;;;;1565330;74;1325;-58
2023/06/29 00:25:13;;;;;;;;;;;25.60;37.60;;;;;;1569238;74;735;-60
2023/06/29 00:27:15;;;;;;;;;;;25.50;37.60;;;;;;1557877;74;744;-58
2023/06/29 00:29:17;;;;;;;;;;;25.50;37.60;;;;;;1561832;75;1134;-58
2023/06/29 00:31:22;;;;;;;;;;;25.60;37.60;;;;;;1559305;74;665;-57
2023/06/29 00:33:23;;;;;;;;;;;25.50;37.60;;;;;;1565925;75;1577;-58
2023/06/29 00:35:24;;;;;;;;;;;25.60;37.60;;;;;;1564410;75;720;-59
2023/06/29 00:37:26;;;;;;;;;;;25.50;37.80;;;;;;1556050;75;1556;-59
2023/06/29 00:39:28;;;;;;;;;;;25.50;38.00;;;;;;1560151;75;1939;-59
2023/06/29 00:41:30;;;;;;;;;;;25.40;38.00;;;;;;1569899;75;687;-58
2023/06/29 00:43:32;;;;;;;;;;;25.50;38.00;;;;;;1569836;75;737;-58
2023/06/29 00:45:34;;;;;;;;;;;25.50;37.90;;;;;;1555004;75;764;-58
2023/06/29 00:47:36;;;;;;;;;;;25.50;37.90;;;;;;1554768;75;757;-59
2023/06/29 00:49:38;;;;;;;;;;;25.50;37.80;;;;;;1561375;75;1081;-58
2023/06/29 00:51:40;;;;;;;;;;;25.50;37.80;;;;;;1555266;75;1575;-58
2023/06/29 00:53:42;;;;;;;;;;;25.50;37.80;;;;;;1568269;75;602;-57
2023/06/29 00:55:44;;;;;;;;;;;25.50;37.80;;;;;;1562509;74;734;-57
2023/06/29 00:57:46;;;;;;;;;;;25.50;37.90;;;;;;1565925;75;1906;-57
2023/06/29 00:59:48;;;;;;;;;;;25.50;37.80;;;;;;1557329;75;668;-59
2023/06/29 01:01:50;;;;;;;;;;;25.50;38.00;;;;;;1563727;74;1133;-58
2023/06/29 01:03:52;;;;;;;;;;;25.50;37.80;;;;;;1550046;75;676;-59
2023/06/29 01:05:55;;;;;;;;;;;25.50;37.80;;;;;;1542972;75;1552;-58
2023/06/29 01:07:59;;;;;;;;;;;25.50;38.00;;;;;;1552590;75;1217;-57
2023/06/29 01:10:01;;;;;;;;;;;25.50;38.20;;;;;;1544850;76;1780;-57
2023/06/29 01:12:03;;;;;;;;;;;25.50;38.10;;;;;;1552829;75;784;-58
2023/06/29 01:14:06;;;;;;;;;;;25.50;38.30;;;;;;1546673;76;908;-57
2023/06/29 01:16:08;;;;;;;;;;;25.50;38.10;;;;;;1560927;76;659;-58
2023/06/29 01:18:09;;;;;;;;;;;25.40;38.00;;;;;;1551908;75;1931;-58
2023/06/29 01:20:11;;;;;;;;;;;25.40;37.80;;;;;;1556660;76;1526;-57
2023/06/29 01:22:15;;;;;;;;;;;25.40;37.80;;;;;;1549759;76;691;-61
2023/06/29 01:24:17;;;;;;;;;;;25.40;38.00;;;;;;1539933;76;1133;-57
2023/06/29 01:26:19;;;;;;;;;;;25.40;38.00;;;;;;1557048;75;755;-59
2023/06/29 01:28:20;;;;;;;;;;;25.30;38.20;;;;;;1554575;75;1157;-58
2023/06/29 01:30:23;;;;;;;;;;;25.40;38.10;;;;;;1553883;76;687;-57
2023/06/29 01:32:28;;;;;;;;;;;25.40;38.10;;;;;;1554323;75;738;-58
2023/06/29 01:34:29;;;;;;;;;;;25.40;37.90;;;;;;1546922;75;1593;-57
2023/06/29 01:36:38;;;;;;;;;;;25.40;38.10;;;;;;1549224;76;739;-57
2023/06/29 01:38:50;;;;;;;;;;;25.40;37.80;;;;;;1553904;76;1941;-58
2023/06/29 01:40:52;;;;;;;;;;;25.40;37.90;;;;;;1552833;75;703;-58
2023/06/29 01:42:54;;;;;;;;;;;25.40;37.90;;;;;;1547923;76;718;-58
2023/06/29 01:44:56;;;;;;;;;;;25.40;37.80;;;;;;1553843;75;869;-57
2023/06/29 01:46:58;;;;;;;;;;;25.50;37.80;;;;;;1552227;76;686;-58
2023/06/29 01:49:00;;;;;;;;;;;25.40;37.80;;;;;;1552319;75;1381;-58
2023/06/29 01:51:02;;;;;;;;;;;25.40;37.80;;;;;;1546556;76;717;-57
2023/06/29 01:53:04;;;;;;;;;;;25.50;37.80;;;;;;1556919;76;694;-59
2023/06/29 01:55:07;;;;;;;;;;;25.50;37.70;;;;;;1550061;75;813;-58
2023/06/29 01:57:08;;;;;;;;;;;25.40;37.70;;;;;;1562831;76;684;-58
2023/06/29 01:59:10;;;;;;;;;;;25.40;37.70;;;;;;1555637;75;1946;-58
2023/06/29 02:01:12;;;;;;;;;;;25.50;37.70;;;;;;1554124;75;783;-58
2023/06/29 02:03:14;;;;;;;;;;;25.40;37.70;;;;;;1571768;74;1557;-57
2023/06/29 02:05:17;;;;;;;;;;;25.40;37.80;;;;;;1587496;74;680;-59
2023/06/29 02:07:19;;;;;;;;;;;25.50;37.70;;;;;;1572064;74;733;-58
2023/06/29 02:09:21;;;;;;;;;;;25.50;37.60;;;;;;1570635;74;1175;-57
2023/06/29 02:11:23;;;;;;;;;;;25.40;37.80;;;;;;1580732;74;663;-59
2023/06/29 02:13:36;;;;;;;;;;;25.40;37.70;;;;;;1570640;74;744;-57
2023/06/29 02:15:35;;;;;;;;;;;25.50;37.60;;;;;;1575741;74;1147;-57
2023/06/29 02:17:37;;;;;;;;;;;25.40;37.60;;;;;;1570941;74;811;-58
2023/06/29 02:19:39;;;;;;;;;;;25.40;37.40;;;;;;1575528;74;1922;-58
2023/06/29 02:21:41;;;;;;;;;;;25.40;37.60;;;;;;1568064;74;776;-58
2023/06/29 02:23:43;;;;;;;;;;;25.40;37.70;;;;;;1568691;74;713;-58
2023/06/29 02:25:45;;;;;;;;;;;25.30;37.60;;;;;;1568369;74;710;-58
2023/06/29 02:27:46;;;;;;;;;;;25.30;37.70;;;;;;1580945;74;1205;-61
2023/06/29 02:29:48;;;;;;;;;;;25.40;37.60;;;;;;1565986;74;1558;-59
2023/06/29 02:31:50;;;;;;;;;;;25.40;37.70;;;;;;1572210;74;655;-58
2023/06/29 02:33:52;;;;;;;;;;;25.40;37.80;;;;;;1574392;74;672;-58
2023/06/29 02:35:54;;;;;;;;;;;25.40;37.70;;;;;;1581712;74;777;-59
2023/06/29 02:37:56;;;;;;;;;;;25.30;37.60;;;;;;1579693;74;1140;-57
2023/06/29 02:39:58;;;;;;;;;;;25.40;37.60;;;;;;1584216;74;1946;-58
2023/06/29 02:42:00;;;;;;;;;;;25.30;37.60;;;;;;1556503;74;670;-56
2023/06/29 02:44:02;;;;;;;;;;;25.30;37.70;;;;;;1572864;74;1339;-57
2023/06/29 02:46:04;;;;;;;;;;;25.40;37.60;;;;;;1576384;74;689;-59
2023/06/29 02:48:06;;;;;;;;;;;25.30;37.80;;;;;;1560522;74;1153;-60
2023/06/29 02:50:08;;;;;;;;;;;25.40;37.70;;;;;;1574609;74;743;-58
2023/06/29 02:52:10;;;;;;;;;;;25.30;37.80;;;;;;1577801;74;752;-59
2023/06/29 02:54:12;;;;;;;;;;;25.40;37.70;;;;;;1572779;74;893;-57
2023/06/29 02:56:14;;;;;;;;;;;25.40;37.70;;;;;;1559380;74;667;-59
2023/06/29 02:58:16;;;;;;;;;;;25.40;37.60;;;;;;1580652;74;1679;-57
2023/06/29 03:00:18;;;;;;;;;;;25.40;37.70;;;;;;1568736;74;1937;-58
2023/06/29 03:02:20;;;;;;;;;;;25.40;37.60;;;;;;1573913;74;1132;-58
2023/06/29 03:04:22;;;;;;;;;;;25.40;37.60;;;;;;1573962;75;652;-58
2023/06/29 03:06:24;;;;;;;;;;;25.40;37.60;;;;;;1564856;75;785;-59
2023/06/29 03:08:26;;;;;;;;;;;25.40;37.60;;;;;;1557356;75;1158;-57
2023/06/29 03:10:27;;;;;;;;;;;25.40;37.60;;;;;;1561810;75;777;-59
2023/06/29 03:12:29;;;;;;;;;;;25.40;37.60;;;;;;1566662;75;1577;-60
2023/06/29 03:14:31;;;;;;;;;;;25.40;37.50;;;;;;1557008;75;627;-58
2023/06/29 03:16:33;;;;;;;;;;;25.40;37.50;;;;;;1554715;74;762;-58
2023/06/29 03:18:35;;;;;;;;;;;25.40;37.60;;;;;;1562367;75;1943;-57
2023/06/29 03:20:37;;;;;;;;;;;25.40;37.70;;;;;;1559373;75;712;-57
2023/06/29 03:22:39;;;;;;;;;;;25.30;38.00;;;;;;1556444;75;866;-58
2023/06/29 03:24:40;;;;;;;;;;;25.40;37.90;;;;;;1550795;75;665;-58
2023/06/29 03:26:42;;;;;;;;;;;25.30;37.70;;;;;;1561806;74;1575;-57
2023/06/29 03:28:44;;;;;;;;;;;25.30;37.70;;;;;;1560834;75;1148;-56
2023/06/29 03:30:46;;;;;;;;;;;25.40;37.80;;;;;;1571485;75;708;-58
2023/06/29 03:32:48;;;;;;;;;;;25.40;37.70;;;;;;1550479;74;694;-57
2023/06/29 03:34:50;;;;;;;;;;;25.40;37.80;;;;;;1563036;75;693;-57
2023/06/29 03:36:52;;;;;;;;;;;25.40;37.80;;;;;;1578559;75;749;-59
2023/06/29 03:38:54;;;;;;;;;;;25.40;37.80;;;;;;1581234;75;1945;-56
2023/06/29 03:40:55;;;;;;;;;;;25.50;37.60;;;;;;1558388;75;1533;-58
2023/06/29 03:42:57;;;;;;;;;;;25.50;37.60;;;;;;1556348;75;740;-59
2023/06/29 03:44:59;;;;;;;;;;;25.50;37.50;;;;;;1566625;75;651;-59
2023/06/29 03:47:01;;;;;;;;;;;25.40;37.60;;;;;;1564176;75;682;-58
2023/06/29 03:49:03;;;;;;;;;;;25.50;37.30;;;;;;1572944;75;1152;-58
2023/06/29 03:51:05;;;;;;;;;;;25.40;37.30;;;;;;1554956;75;777;-57
2023/06/29 03:53:07;;;;;;;;;;;25.40;37.40;;;;;;1566176;74;725;-57
2023/06/29 03:55:09;;;;;;;;;;;25.50;37.40;;;;;;1558734;75;1412;-58
2023/06/29 03:57:11;;;;;;;;;;;25.50;37.50;;;;;;1579932;75;691;-60
2023/06/29 03:59:13;;;;;;;;;;;25.40;37.40;;;;;;1576457;75;1942;-59
2023/06/29 04:01:15;;;;;;;;;;;25.40;37.40;;;;;;1568639;75;629;-57
2023/06/29 04:03:17;;;;;;;;;;;25.30;37.60;;;;;;1572825;74;1098;-59
2023/06/29 04:05:18;;;;;;;;;;;25.40;37.50;;;;;;1578293;74;574;-58
2023/06/29 04:07:20;;;;;;;;;;;25.40;37.60;;;;;;1566305;74;762;-57
2023/06/29 04:09:22;;;;;;;;;;;25.40;37.50;;;;;;1577092;74;1598;-58
2023/06/29 04:11:24;;;;;;;;;;;25.40;37.60;;;;;;1576936;74;758;-57
2023/06/29 04:13:26;;;;;;;;;;;25.40;37.60;;;;;;1573147;74;734;-57
2023/06/29 04:15:28;;;;;;;;;;;25.40;37.70;;;;;;1568056;74;764;-57
2023/06/29 04:17:30;;;;;;;;;;;25.30;37.70;;;;;;1574566;74;676;-58
2023/06/29 04:19:32;;;;;;;;;;;25.40;37.60;;;;;;1580426;74;1935;-58
2023/06/29 04:21:35;;;;;;;;;;;25.30;37.50;;;;;;1573259;74;873;-57
2023/06/29 04:23:37;;;;;;;;;;;25.30;37.60;;;;;;1575695;74;1427;-58
2023/06/29 04:25:42;;;;;;;;;;;25.30;37.60;;;;;;1569703;74;721;-57
2023/06/29 04:27:43;;;;;;;;;;;25.30;37.60;;;;;;1578813;74;1655;-57
2023/06/29 04:29:45;;;;;;;;;;;25.30;37.80;;;;;;1575339;74;1144;-60
2023/06/29 04:31:46;;;;;;;;;;;25.30;37.80;;;;;;1577790;74;710;-59
2023/06/29 04:33:48;;;;;;;;;;;25.30;37.70;;;;;;1582013;74;677;-58
2023/06/29 04:35:50;;;;;;;;;;;25.30;37.60;;;;;;1572606;74;736;-58
2023/06/29 04:37:52;;;;;;;;;;;25.30;37.60;;;;;;1583181;74;1371;-58
2023/06/29 04:39:54;;;;;;;;;;;25.30;37.60;;;;;;1570845;74;1939;-56
2023/06/29 04:42:01;;;;;;;;;;;25.30;37.50;;;;;;1576155;74;733;-59
2023/06/29 04:43:59;;;;;;;;;;;25.30;37.60;;;;;;1583900;74;1700;-59
2023/06/29 04:46:01;;;;;;;;;;;25.30;37.50;;;;;;1566342;74;941;-58
2023/06/29 04:48:03;;;;;;;;;;;25.30;37.60;;;;;;1566322;73;1129;-60
2023/06/29 04:50:06;;;;;;;;;;;25.30;37.80;;;;;;1589685;73;871;-58
2023/06/29 04:52:11;;;;;;;;;;;25.30;37.30;;;;;;1579882;73;1539;-59
2023/06/29 04:54:13;;;;;;;;;;;25.30;37.10;;;;;;1594786;73;771;-60
2023/06/29 04:56:15;;;;;;;;;;;25.20;37.00;;;;;;1565224;74;756;-57
2023/06/29 04:58:17;;;;;;;;;;;25.20;37.10;;;;;;1567889;74;1188;-59
2023/06/29 05:00:19;;;;;;;;;;;25.20;37.30;;;;;;1566483;74;1935;-59
2023/06/29 05:02:21;;;;;;;;;;;25.20;37.30;;;;;;1558542;74;826;-58
2023/06/29 05:04:23;;;;;;;;;;;25.10;37.30;;;;;;1565417;74;1110;-60
2023/06/29 05:06:25;;;;;;;;;;;25.10;37.30;;;;;;1567774;74;746;-58
2023/06/29 05:08:27;;;;;;;;;;;25.10;37.30;;;;;;1564291;74;1218;-59
2023/06/29 05:10:28;;;;;;;;;;;25.10;37.50;;;;;;1562092;74;762;-59
2023/06/29 05:12:30;;;;;;;;;;;25.00;37.60;;;;;;1564579;74;577;-58
2023/06/29 05:14:32;;;;;;;;;;;25.00;37.60;;;;;;1573732;74;637;-58
2023/06/29 05:16:34;;;;;;;;;;;25.10;37.80;;;;;;1572324;74;748;-58
2023/06/29 05:18:37;;;;;;;;;;;25.00;37.80;;;;;;1574850;74;1597;-60
2023/06/29 05:20:39;;;;;;;;;;;25.00;37.80;;;;;;1562880;75;1917;-59
2023/06/29 05:22:40;;;;;;;;;;;25.00;37.90;;;;;;1560418;74;761;-58
2023/06/29 05:24:42;;;;;;;;;;;25.00;37.90;;;;;;1553215;75;672;-59
2023/06/29 05:26:44;;;;;;;;;;;25.00;38.00;;;;;;1573876;74;702;-59
2023/06/29 05:28:46;;;;;;;;;;;25.00;38.00;;;;;;1558640;74;1085;-59
2023/06/29 05:30:48;;;;;;;;;;;25.00;38.10;;;;;;1560680;75;724;-61
2023/06/29 05:32:50;;;;;;;;;;;25.00;38.10;;;;;;1551861;75;1539;-61
2023/06/29 05:34:52;;;;;;;;;;;24.90;38.20;;;;;;1573881;74;679;-61
2023/06/29 05:36:53;;;;;;;;;;;25.00;38.20;;;;;;1557988;74;657;-58
2023/06/29 05:38:55;;;;;;;;;;;25.00;38.20;;;;;;1559267;75;1138;-59
2023/06/29 05:40:57;;;;;;;;;;;25.00;38.30;;;;;;1568733;74;1934;-58
2023/06/29 05:42:59;;;;;;;;;;;25.00;38.40;;;;;;1567007;74;790;-58
2023/06/29 05:45:01;;;;;;;;;;;25.00;38.40;;;;;;1565739;74;759;-59
2023/06/29 05:47:03;;;;;;;;;;;25.00;38.40;;;;;;1571445;75;1545;-59
2023/06/29 05:49:05;;;;;;;;;;;25.10;38.40;;;;;;1566293;75;1146;-60
2023/06/29 05:51:07;;;;;;;;;;;25.10;38.40;;;;;;1553399;74;670;-58
2023/06/29 05:53:09;;;;;;;;;;;25.00;38.50;;;;;;1563226;74;784;-58
2023/06/29 05:55:11;;;;;;;;;;;25.00;38.50;;;;;;1569544;75;778;-58
2023/06/29 05:57:12;;;;;;;;;;;25.10;38.40;;;;;;1564283;75;687;-60
2023/06/29 05:59:14;;;;;;;;;;;25.00;38.50;;;;;;1567371;74;1133;-59
2023/06/29 06:01:17;;;;;;;;;;;25.10;38.60;;;;;;1557964;75;1946;-59
2023/06/29 06:03:20;;;;;;;;;;;25.00;38.60;;;;;;1565159;74;738;-57
2023/06/29 06:05:22;;;;;;;;;;;25.00;38.60;;;;;;1567202;74;935;-58
2023/06/29 06:07:28;;;;;;;;;;;25.00;38.60;;;;;;1566043;75;720;-57
2023/06/29 06:09:30;;;;;;;;;;;25.00;38.70;;;;;;1555583;75;1151;-60
2023/06/29 06:11:32;;;;;;;;;;;25.10;38.60;;;;;;1568179;74;718;-60
2023/06/29 06:13:33;;;;;;;;;;;25.00;38.70;;;;;;1567105;74;667;-59
2023/06/29 06:15:35;;;;;;;;;;;25.00;38.60;;;;;;1565907;74;1493;-58
2023/06/29 06:17:38;;;;;;;;;;;25.00;38.60;;;;;;1571002;75;694;-59
2023/06/29 06:19:40;;;;;;;;;;;25.10;38.50;;;;;;1574073;75;1934;-58
2023/06/29 06:21:41;;;;;;;;;;;25.00;38.60;;;;;;1571471;75;780;-60
2023/06/29 06:23:43;;;;;;;;;;;25.10;38.60;;;;;;1563935;74;644;-58
2023/06/29 06:25:45;;;;;;;;;;;25.10;38.50;;;;;;1570008;75;780;-58
2023/06/29 06:27:48;;;;;;;;;;;25.10;38.50;;;;;;1568681;75;1135;-58
2023/06/29 06:29:50;;;;;;;;;;;25.00;38.40;;;;;;1554382;75;1351;-59
2023/06/29 06:31:52;;;;;;;;;;;25.00;38.40;;;;;;1564059;74;688;-57
2023/06/29 06:33:57;;;;;;;;;;;25.00;38.40;;;;;;1566512;75;682;-60
2023/06/29 06:35:58;;;;;;;;;;;25.00;38.30;;;;;;1565735;75;1683;-56
2023/06/29 06:38:00;;;;;;;;;;;25.00;38.30;;;;;;1566928;75;1183;-58
2023/06/29 06:40:07;;;;;;;;;;;25.00;38.30;;;;;;1574157;74;1954;-57
2023/06/29 06:42:06;;;;;;;;;;;25.00;38.60;;;;;;1572018;74;1168;-60
2023/06/29 06:44:08;;;;;;;;;;;25.00;38.50;;;;;;1568745;74;1327;-60
2023/06/29 06:46:10;;;;;;;;;;;25.10;38.20;;;;;;1565687;74;750;-61
2023/06/29 06:48:12;;;;;;;;;;;25.30;38.00;;;;;;1565583;75;1101;-59
2023/06/29 06:50:14;;;;;;;;;;;25.30;37.80;;;;;;1563305;74;763;-59
2023/06/29 06:52:16;;;;;;;;;;;25.40;37.70;;;;;;1564592;75;666;-58
2023/06/29 06:54:18;;;;;;;;;;;25.50;37.50;;;;;;1558001;75;691;-58
2023/06/29 06:56:20;;;;;;;;;;;25.50;37.50;;;;;;1576116;75;754;-57
2023/06/29 06:58:22;;;;;;;;;;;25.50;37.30;;;;;;1565862;75;1542;-60
2023/06/29 07:00:26;;;;;;;;;;;25.50;37.20;;;;;;1562645;75;1933;-59
2023/06/29 07:02:28;;;;;;;;;;;25.60;37.00;;;;;;1563401;74;681;-58
2023/06/29 07:04:30;;;;;;;;;;;25.70;36.90;;;;;;1569210;74;1118;-58
2023/06/29 07:06:33;;;;;;;;;;;25.80;36.80;;;;;;1587413;73;659;-58
2023/06/29 07:08:35;;;;;;;;;;;25.90;36.50;;;;;;1577923;73;1137;-56
2023/06/29 07:10:37;;;;;;;;;;;25.90;36.30;;;;;;1564151;73;672;-57
2023/06/29 07:12:39;;;;;;;;;;;25.90;36.00;;;;;;1577996;73;1524;-59
2023/06/29 07:14:41;;;;;;;;;;;25.90;36.30;;;;;;1574451;74;701;-61
2023/06/29 07:16:43;;;;;;;;;;;26.00;36.70;;;;;;1576810;74;654;-59
2023/06/29 07:18:49;;;;;;;;;;;26.00;36.60;;;;;;1584599;74;1176;-59
2023/06/29 07:20:51;;;;;;;;;;;26.10;36.40;;;;;;1561900;74;1945;-61
2023/06/29 07:22:53;;;;;;;;;;;26.10;36.20;;;;;;1581236;74;718;-61
2023/06/29 07:24:56;;;;;;;;;;;26.10;36.10;;;;;;1584341;74;692;-59
2023/06/29 07:26:58;;;;;;;;;;;26.10;35.90;;;;;;1581953;74;1429;-60
2023/06/29 07:29:00;;;;;;;;;;;26.10;35.80;;;;;;1580173;74;1139;-58
2023/06/29 07:31:02;;;;;;;;;;;26.10;35.90;;;;;;1570763;74;610;-59
2023/06/29 07:33:04;;;;;;;;;;;26.10;35.80;;;;;;1584631;74;658;-59
2023/06/29 07:35:07;;;;;;;;;;;26.00;36.00;;;;;;1578340;73;688;-61
2023/06/29 07:37:09;;;;;;;;;;;26.00;36.10;;;;;;1544171;76;964;-59
2023/06/29 07:39:11;;;;;;;;;;;26.10;36.00;;;;;;1577350;73;1438;-58
2023/06/29 07:41:13;;;;;;;;;;;26.00;36.20;;;;;;1581554;73;1922;-59
2023/06/29 07:43:15;;;;;;;;;;;26.10;36.20;;;;;;1576772;73;682;-59
2023/06/29 07:45:17;;;;;;;;;;;26.00;36.30;;;;;;1574059;74;734;-59
2023/06/29 07:47:19;;;;;;;;;;;26.00;36.20;;;;;;1574760;74;752;-59
2023/06/29 07:49:21;;;;;;;;;;;26.00;36.20;;;;;;1568113;74;1140;-58
2023/06/29 07:51:23;;;;;;;;;;;26.20;36.10;;;;;;1576396;74;753;-59
2023/06/29 07:53:25;;;;;;;;;;;26.10;36.00;;;;;;1562557;74;1545;-60
2023/06/29 07:56:37;;;;;;;;;;;26.20;36.10;;;;;;1604337;72;651;-60
2023/06/29 07:58:38;;;;;;;;;;;26.10;36.50;;;;;;1563489;73;1207;-58
2023/06/29 08:00:42;;;;;;;;;;;26.10;36.40;;;;;;1561786;76;767;-57
2023/06/29 08:02:44;;;;;;;;;;;26.10;36.50;;;;;;1554593;75;834;-59
2023/06/29 08:04:46;;;;;;;;;;;26.10;36.40;;;;;;1554515;74;868;-60
2023/06/29 08:06:48;;;;;;;;;;;26.10;36.30;;;;;;1559724;75;621;-60
2023/06/29 08:08:50;;;;;;;;;;;26.20;36.00;;;;;;1559196;75;1606;-60
2023/06/29 08:10:52;;;;;;;;;;;26.20;35.90;;;;;;1553375;75;645;-60
2023/06/29 08:12:54;;;;;;;;;;;26.20;35.80;;;;;;1540794;75;658;-59
2023/06/29 08:14:55;;;;;;;;;;;26.20;35.90;;;;;;1551811;75;1946;-59
2023/06/29 08:16:57;;;;;;;;;;;26.10;35.60;;;;;;1550190;75;619;-59
2023/06/29 08:18:59;;;;;;;;;;;26.20;35.60;;;;;;1564694;75;1125;-59
2023/06/29 08:21:01;;;;;;;;;;;26.20;35.70;;;;;;1559227;75;683;-59
2023/06/29 08:23:03;;;;;;;;;;;26.20;35.50;;;;;;1553600;75;1357;-60
2023/06/29 08:25:05;;;;;;;;;;;26.20;35.70;;;;;;1560598;75;746;-60
2023/06/29 08:27:07;;;;;;;;;;;26.30;35.50;;;;;;1569168;75;676;-60
2023/06/29 08:29:09;;;;;;;;;;;26.20;35.40;;;;;;1561484;75;1109;-60
2023/06/29 08:31:12;;;;;;;;;;;26.20;35.00;;;;;;1564869;74;761;-59
2023/06/29 08:33:14;;;;;;;;;;;26.30;35.40;;;;;;1552472;75;648;-60
2023/06/29 08:35:16;;;;;;;;;;;26.30;35.50;;;;;;1537763;75;1937;-59
2023/06/29 08:37:18;;;;;;;;;;;26.30;35.30;;;;;;1548474;75;1660;-61
2023/06/29 08:39:20;;;;;;;;;;;26.30;35.20;;;;;;1567301;75;1142;-61
2023/06/29 08:41:22;;;;;;;;;;;26.30;34.90;;;;;;1555372;75;803;-59
2023/06/29 08:43:24;;;;;;;;;;;26.20;35.00;;;;;;1540651;75;764;-59
2023/06/29 08:45:26;;;;;;;;;;;26.20;35.30;;;;;;1560760;74;740;-59
2023/06/29 08:47:27;;;;;;;;;;;26.30;35.10;;;;;;1563407;75;807;-60
2023/06/29 08:49:29;;;;;;;;;;;26.30;35.00;;;;;;1551485;74;1595;-59
2023/06/29 08:51:32;;;;;;;;;;;26.30;35.00;;;;;;1557060;75;685;-59
2023/06/29 08:53:34;;;;;;;;;;;26.20;34.80;;;;;;1551627;75;768;-59
2023/06/29 08:55:36;;;;;;;;;;;26.20;34.80;;;;;;1561645;75;1925;-59
2023/06/29 08:57:38;;;;;;;;;;;26.30;34.70;;;;;;1564328;74;546;-59
2023/06/29 08:59:40;;;;;;;;;;;26.30;34.20;;;;;;1561755;75;1157;-58
2023/06/29 09:01:42;;;;;;;;;;;26.20;34.50;;;;;;1564999;74;778;-59
2023/06/29 09:03:44;;;;;;;;;;;26.30;34.70;;;;;;1558685;76;1564;-60
2023/06/29 09:05:47;;;;;;;;;;;26.30;34.60;;;;;;1565401;76;694;-60
2023/06/29 09:07:50;;;;;;;;;;;26.40;34.90;;;;;;1565390;76;1180;-59
2023/06/29 09:09:53;;;;;;;;;;;26.40;34.60;;;;;;1551294;75;953;-59
2023/06/29 09:11:55;;;;;;;;;;;26.20;34.20;;;;;;1541889;76;778;-58
2023/06/29 09:13:57;;;;;;;;;;;26.30;34.20;;;;;;1558226;76;666;-58
2023/06/29 09:16:00;;;;;;;;;;;26.30;34.00;;;;;;1565465;75;1927;-59
2023/06/29 09:18:02;;;;;;;;;;;26.20;33.60;;;;;;1551713;76;1536;-58
2023/06/29 09:20:13;;;;;;;;;;;26.20;33.50;;;;;;1557402;76;775;-59
2023/06/29 09:22:08;;;;;;;;;;;26.20;34.00;;;;;;1559244;76;1714;-59
2023/06/29 09:24:10;;;;;;;;;;;26.30;34.20;;;;;;1563092;76;723;-59
2023/06/29 09:26:12;;;;;;;;;;;26.20;33.70;;;;;;1547829;74;777;-59
2023/06/29 09:28:14;;;;;;;;;;;26.30;33.90;;;;;;1564282;76;1159;-60
2023/06/29 09:30:18;;;;;;;;;;;26.30;34.00;;;;;;1560066;75;732;-59
2023/06/29 09:32:20;;;;;;;;;;;26.30;34.00;;;;;;1556924;76;1545;-58
2023/06/29 09:34:22;;;;;;;;;;;26.20;31.70;;;;;;1556991;76;788;-58
2023/06/29 09:36:27;;;;;;;;;;;26.20;33.10;;;;;;1561883;76;1924;-59
2023/06/29 09:38:30;;;;;;;;;;;26.20;33.50;;;;;;1562138;76;1166;-60
2023/06/29 09:40:35;;;;;;;;;;;26.20;33.60;;;;;;1556690;76;692;-60
2023/06/29 09:42:40;;;;;;;;;;;26.20;33.70;;;;;;1555052;75;1042;-61
2023/06/29 09:44:43;;;;;;;;;;;26.30;33.30;;;;;;1560754;75;609;-61
2023/06/29 09:46:56;;;;;;;;;;;26.20;33.50;;;;;;1530172;76;1559;-61
2023/06/29 09:49:01;;;;;;;;;;;26.30;33.80;;;;;;1537866;75;1121;-61
2023/06/29 09:51:01;;;;;;;;;;;26.20;34.10;;;;;;1546853;76;984;-61
2023/06/29 09:53:05;;;;;;;;;;;26.20;33.40;;;;;;1554087;76;753;-60
2023/06/29 09:55:07;;;;;;;;;;;26.10;32.40;;;;;;1552883;74;1918;-60
2023/06/29 09:57:13;;;;;;;;;;;26.10;33.40;;;;;;1551898;75;1939;-60
2023/06/29 09:59:16;;;;;;;;;;;26.00;33.30;;;;;;1556402;75;1136;-60
2023/06/29 10:01:18;;;;;;;;;;;26.10;33.30;;;;;;1548041;75;1655;-60
2023/06/29 10:03:20;;;;;;;;;;;26.10;33.40;;;;;;1561026;75;760;-60
2023/06/29 10:05:22;;;;;;;;;;;26.10;33.30;;;;;;1555827;75;708;-60
2023/06/29 10:07:23;;;;;;;;;;;26.10;33.70;;;;;;1542829;75;719;-60
2023/06/29 10:09:25;;;;;;;;;;;26.10;33.10;;;;;;1555341;75;1169;-60
2023/06/29 10:11:32;;;;;;;;;;;26.10;33.00;;;;;;1550207;75;735;-60
2023/06/29 10:13:32;;;;;;;;;;;26.00;33.20;;;;;;1556358;75;1317;-60
2023/06/29 10:15:36;;;;;;;;;;;26.00;33.10;;;;;;1564760;75;1929;-59
2023/06/29 10:17:40;;;;;;;;;;;26.00;33.00;;;;;;1558334;75;788;-59
2023/06/29 10:19:42;;;;;;;;;;;26.00;32.20;;;;;;1544247;75;2024;-58
2023/06/29 10:21:44;;;;;;;;;;;26.00;32.10;;;;;;1555887;75;797;-59
2023/06/29 10:23:46;;;;;;;;;;;25.90;30.70;;;;;;1553901;75;649;-58
2023/06/29 10:25:52;;;;;;;;;;;25.90;31.70;;;;;;1547046;75;675;-59
2023/06/29 10:27:52;;;;;;;;;;;26.00;32.80;;;;;;1561686;75;1564;-61
2023/06/29 10:29:53;;;;;;;;;;;26.00;32.80;;;;;;1555167;75;737;-60
2023/06/29 10:31:57;;;;;;;;;;;26.00;32.90;;;;;;1559068;75;713;-59
2023/06/29 10:33:59;;;;;;;;;;;26.00;31.40;;;;;;1545923;75;667;-59
2023/06/29 10:36:02;;;;;;;;;;;26.00;32.30;;;;;;1557593;75;1913;-59
2023/06/29 10:38:13;;;;;;;;;;;25.90;32.30;;;;;;1524210;76;1134;-59
2023/06/29 10:40:15;;;;;;;;;;;26.00;32.60;;;;;;1550745;75;709;-59
2023/06/29 10:42:25;;;;;;;;;;;25.90;31.60;;;;;;1556768;75;1652;-58
2023/06/29 10:44:28;;;;;;;;;;;26.00;32.30;;;;;;1564046;75;713;-58
2023/06/29 10:46:49;;;;;;;;;;;26.00;32.10;;;;;;1552071;75;1863;-59
2023/06/29 10:49:00;;;;;;;;;;;25.90;32.10;;;;;;1551735;75;1148;-57
2023/06/29 10:51:02;;;;;;;;;;;25.90;31.90;;;;;;1548883;75;756;-59
2023/06/29 10:53:05;;;;;;;;;;;25.90;32.70;;;;;;1512572;76;1131;-58
2023/06/29 10:55:11;;;;;;;;;;;25.90;32.20;;;;;;1556881;75;726;-56
2023/06/29 10:57:13;;;;;;;;;;;25.80;31.50;;;;;;1554938;75;1935;-56
2023/06/29 10:59:15;;;;;;;;;;;25.90;31.90;;;;;;1542999;76;1179;-58
2023/06/29 11:01:17;;;;;;;;;;;25.80;32.20;;;;;;1545984;76;812;-59
2023/06/29 11:03:20;;;;;;;;;;;25.90;31.60;;;;;;1550858;74;673;-57
2023/06/29 11:05:22;;;;;;;;;;;25.90;31.90;;;;;;1547481;76;693;-58
2023/06/29 11:07:24;;;;;;;;;;;25.90;32.20;;;;;;1547844;74;750;-59
2023/06/29 11:09:26;;;;;;;;;;;25.80;32.10;;;;;;1550753;74;1147;-56
2023/06/29 11:11:28;;;;;;;;;;;25.90;31.70;;;;;;1550557;74;1305;-60
2023/06/29 11:13:29;;;;;;;;;;;25.80;31.10;;;;;;1558165;75;747;-59
2023/06/29 11:15:33;;;;;;;;;;;25.80;31.50;;;;;;1533605;76;1107;-58
2023/06/29 11:17:34;;;;;;;;;;;25.90;31.30;;;;;;1556485;76;1912;-57
2023/06/29 11:19:37;;;;;;;;;;;25.80;31.00;;;;;;1556877;76;1121;-59
2023/06/29 11:21:40;;;;;;;;;;;25.80;31.50;;;;;;1539547;76;1104;-57
2023/06/29 11:23:44;;;;;;;;;;;25.80;31.90;;;;;;1559262;74;769;-58
2023/06/29 11:25:46;;;;;;;;;;;25.80;30.90;;;;;;1543912;75;1460;-58
2023/06/29 11:27:47;;;;;;;;;;;25.70;31.60;;;;;;1562473;74;777;-56
2023/06/29 11:29:57;;;;;;;;;;;25.70;30.90;;;;;;1562876;76;662;-56
2023/06/29 11:32:00;;;;;;;;;;;25.70;29.90;;;;;;1555219;74;1230;-57
2023/06/29 11:34:02;;;;;;;;;;;25.60;31.00;;;;;;1551726;75;2643;-57
2023/06/29 11:36:04;;;;;;;;;;;25.70;30.80;;;;;;1562896;76;1927;-55
2023/06/29 11:38:06;;;;;;;;;;;25.60;31.30;;;;;;1557587;74;1127;-57
2023/06/29 11:40:18;;;;;;;;;;;25.70;31.50;;;;;;1553538;74;1661;-56
2023/06/29 11:42:24;;;;;;;;;;;25.80;31.50;;;;;;1558743;76;718;-55
2023/06/29 11:44:24;;;;;;;;;;;25.70;30.70;;;;;;1556230;76;1555;-56
2023/06/29 11:46:26;;;;;;;;;;;25.70;29.30;;;;;;1557250;76;740;-56
2023/06/29 11:48:29;;;;;;;;;;;25.70;30.00;;;;;;1561353;74;1151;-55
2023/06/29 11:50:32;;;;;;;;;;;25.70;30.20;;;;;;1557158;74;708;-56
2023/06/29 11:52:34;;;;;;;;;;;25.70;31.10;;;;;;1554749;76;1456;-56
2023/06/29 11:54:36;;;;;;;;;;;25.70;30.20;;;;;;1554966;76;643;-54
2023/06/29 11:56:41;;;;;;;;;;;25.60;30.50;;;;;;1560107;75;1942;-56
2023/06/29 11:58:43;;;;;;;;;;;25.70;29.70;;;;;;1553862;75;1183;-58
2023/06/29 12:00:46;;;;;;;;;;;25.60;29.80;;;;;;1531403;76;833;-57
2023/06/29 12:02:48;;;;;;;;;;;25.70;30.00;;;;;;1555869;74;622;-56
2023/06/29 12:05:09;;;;;;;;;;;25.60;28.60;;;;;;1560895;76;697;-56
2023/06/29 12:07:11;;;;;;;;;;;25.70;29.40;;;;;;1613931;72;1617;-56
2023/06/29 12:09:13;;;;;;;;;;;25.60;29.90;;;;;;1578926;73;1205;-56
2023/06/29 12:11:16;;;;;;;;;;;25.60;28.70;;;;;;1633661;71;721;-57